Time;durP1;ratioP1;P1;durP2;ratioP2;P2;SDS_P1;SDS_P2;PMS_P1;PMS_P2;Temp;Humidity;BMP_temperature;BMP_pressure;BME280_temperature;BME280_humidity;BME280_pressure;Samples;Min_cycle;Max_cycle;Signal;HPM_P1;HPM_P2
2023/09/13 00:02:16;;;;;;;4.17;3.80;;;;;;;;;;5073272;28;20546;-68
2023/09/13 00:04:43;;;;;;;3.63;3.43;;;;;;;;;;5073130;28;20524;-68
2023/09/13 00:07:10;;;;;;;4.00;3.70;;;;;;;;;;5073279;28;20436;-68
2023/09/13 00:09:40;;;;;;;3.80;3.60;;;;;;;;;;5072881;28;20450;-68
2023/09/13 00:12:08;;;;;;;4.30;4.10;;;;;;;;;;5073180;28;20440;-68
2023/09/13 00:14:34;;;;;;;4.50;4.20;;;;;;;;;;5073590;28;20466;-68
2023/09/13 00:17:01;;;;;;;4.60;4.23;;;;;;;;;;5072905;28;20534;-68
2023/09/13 00:19:30;;;;;;;3.67;3.47;;;;;;;;;;5073223;28;20526;-68
2023/09/13 00:21:57;;;;;;;4.13;3.83;;;;;;;;;;5073133;28;20492;-68
2023/09/13 00:24:24;;;;;;;4.07;3.70;;;;;;;;;;5073034;28;20451;-68
2023/09/13 00:26:51;;;;;;;6.40;4.40;;;;;;;;;;5073030;28;20534;-68
2023/09/13 00:29:18;;;;;;;3.97;3.67;;;;;;;;;;5072866;28;20458;-68
2023/09/13 00:31:45;;;;;;;5.23;4.20;;;;;;;;;;5072675;28;20489;-68
2023/09/13 00:34:12;;;;;;;5.03;4.53;;;;;;;;;;5073122;28;20449;-68
2023/09/13 00:36:41;;;;;;;4.07;3.77;;;;;;;;;;5072955;28;20443;-68
2023/09/13 00:39:07;;;;;;;3.87;3.67;;;;;;;;;;5072663;28;20550;-68
2023/09/13 00:41:34;;;;;;;4.60;4.20;;;;;;;;;;5076296;28;20439;-68
2023/09/13 00:44:01;;;;;;;5.63;4.00;;;;;;;;;;5076862;28;20435;-68
2023/09/13 00:46:29;;;;;;;4.30;4.00;;;;;;;;;;5076722;28;20527;-68
2023/09/13 00:48:56;;;;;;;4.20;3.90;;;;;;;;;;5076878;28;20439;-68
2023/09/13 00:51:23;;;;;;;3.90;3.70;;;;;;;;;;5076710;28;20483;-68
2023/09/13 00:53:51;;;;;;;4.17;3.73;;;;;;;;;;5076697;28;20534;-68
2023/09/13 00:56:18;;;;;;;4.77;4.27;;;;;;;;;;5076655;28;20443;-68
2023/09/13 00:58:47;;;;;;;4.40;4.10;;;;;;;;;;5076641;28;20443;-68
2023/09/13 01:01:14;;;;;;;4.27;3.87;;;;;;;;;;5076373;28;20982;-68
2023/09/13 01:03:41;;;;;;;5.30;4.90;;;;;;;;;;5076460;28;20483;-68
2023/09/13 01:06:09;;;;;;;4.00;3.70;;;;;;;;;;5076521;28;20541;-68
2023/09/13 01:08:39;;;;;;;4.07;3.87;;;;;;;;;;5076391;28;20530;-68
2023/09/13 01:11:07;;;;;;;4.93;4.30;;;;;;;;;;5076244;28;20830;-68
2023/09/13 01:13:34;;;;;;;4.60;4.20;;;;;;;;;;5076208;28;20998;-68
2023/09/13 01:16:09;;;;;;;4.53;4.23;;;;;;;;;;5076429;28;20458;-68
2023/09/13 01:18:37;;;;;;;5.67;5.13;;;;;;;;;;5076393;28;20504;-68
2023/09/13 01:21:14;;;;;;;4.60;4.20;;;;;;;;;;5076115;28;20455;-68
2023/09/13 01:24:01;;;;;;;5.73;5.23;;;;;;;;;;5076052;28;20454;-68
2023/09/13 01:26:39;;;;;;;4.77;4.37;;;;;;;;;;5076281;28;20885;-68
2023/09/13 01:29:09;;;;;;;5.23;4.47;;;;;;;;;;5076086;28;20450;-68
2023/09/13 01:31:37;;;;;;;4.87;4.57;;;;;;;;;;5075960;28;20483;-68
2023/09/13 01:34:04;;;;;;;4.90;4.47;;;;;;;;;;5075899;28;20453;-68
2023/09/13 01:36:31;;;;;;;5.03;4.63;;;;;;;;;;5075742;28;20534;-68
2023/09/13 01:38:58;;;;;;;7.10;4.83;;;;;;;;;;5075974;28;20455;-68
2023/09/13 01:41:27;;;;;;;5.80;5.30;;;;;;;;;;5075687;28;20458;-68
2023/09/13 01:43:54;;;;;;;6.57;5.23;;;;;;;;;;5075764;28;20452;-68
2023/09/13 01:46:27;;;;;;;4.50;4.20;;;;;;;;;;5075663;28;20443;-68
2023/09/13 01:48:54;;;;;;;8.53;5.00;;;;;;;;;;5075610;28;20451;-68
2023/09/13 01:51:21;;;;;;;5.40;4.93;;;;;;;;;;5075129;28;20530;-68
2023/09/13 01:53:49;;;;;;;5.90;5.27;;;;;;;;;;5075546;28;20483;-68
2023/09/13 01:56:16;;;;;;;5.63;4.73;;;;;;;;;;5075524;28;20448;-68
2023/09/13 01:58:43;;;;;;;4.70;4.40;;;;;;;;;;5075460;28;20447;-69
2023/09/13 02:01:11;;;;;;;6.13;4.70;;;;;;;;;;5075145;28;20895;-68
2023/09/13 02:03:39;;;;;;;6.00;5.40;;;;;;;;;;5075469;28;20526;-68
2023/09/13 02:06:06;;;;;;;16.53;7.57;;;;;;;;;;5075438;28;20731;-68
2023/09/13 02:08:33;;;;;;;7.23;5.80;;;;;;;;;;5075401;28;20443;-68
2023/09/13 02:11:00;;;;;;;8.30;5.00;;;;;;;;;;5075152;28;20471;-68
2023/09/13 02:13:27;;;;;;;20.07;6.37;;;;;;;;;;5075159;28;20440;-68
2023/09/13 02:15:54;;;;;;;12.30;7.43;;;;;;;;;;5075056;28;20542;-70
2023/09/13 02:18:21;;;;;;;19.60;9.90;;;;;;;;;;5075306;28;20451;-70
2023/09/13 02:20:49;;;;;;;16.60;9.40;;;;;;;;;;5075212;28;20451;-70
2023/09/13 02:23:16;;;;;;;11.63;8.00;;;;;;;;;;5074996;28;20447;-70
2023/09/13 02:25:44;;;;;;;12.73;8.00;;;;;;;;;;5074970;28;20674;-68
2023/09/13 02:28:12;;;;;;;10.90;8.03;;;;;;;;;;5074865;28;20448;-68
2023/09/13 02:30:39;;;;;;;11.20;7.20;;;;;;;;;;5074665;28;20978;-69
2023/09/13 02:33:06;;;;;;;10.27;8.30;;;;;;;;;;5074900;28;20530;-68
2023/09/13 02:35:33;;;;;;;9.73;8.10;;;;;;;;;;5074857;28;20555;-68
2023/09/13 02:38:01;;;;;;;8.77;7.83;;;;;;;;;;5074803;28;20798;-68
2023/09/13 02:40:28;;;;;;;9.33;8.00;;;;;;;;;;5074606;28;20479;-68
2023/09/13 02:42:55;;;;;;;12.50;8.83;;;;;;;;;;5074508;28;20535;-67
2023/09/13 02:45:22;;;;;;;12.43;9.40;;;;;;;;;;5074817;28;20443;-68
2023/09/13 02:47:49;;;;;;;12.40;8.90;;;;;;;;;;5074688;28;20530;-68
2023/09/13 02:50:16;;;;;;;11.33;9.50;;;;;;;;;;5074475;28;20806;-68
2023/09/13 02:52:43;;;;;;;13.23;8.87;;;;;;;;;;5074493;28;20804;-68
2023/09/13 02:55:11;;;;;;;12.23;8.83;;;;;;;;;;5074385;28;20444;-68
2023/09/13 02:57:38;;;;;;;8.40;7.60;;;;;;;;;;5074220;28;20534;-68
2023/09/13 03:00:06;;;;;;;12.87;8.23;;;;;;;;;;5074189;28;20478;-68
2023/09/13 03:02:33;;;;;;;9.00;8.07;;;;;;;;;;5073367;28;20463;-68
2023/09/13 03:05:00;;;;;;;12.70;8.90;;;;;;;;;;5074170;28;20475;-68
2023/09/13 03:07:27;;;;;;;11.17;8.57;;;;;;;;;;5074193;28;20443;-68
2023/09/13 03:09:57;;;;;;;13.80;8.20;;;;;;;;;;5074009;28;21009;-68
2023/09/13 03:12:25;;;;;;;13.57;9.07;;;;;;;;;;5074130;28;20540;-68
2023/09/13 03:14:52;;;;;;;9.80;8.47;;;;;;;;;;5074048;28;20876;-68
2023/09/13 03:17:19;;;;;;;9.90;8.70;;;;;;;;;;5074002;28;20535;-68
2023/09/13 03:19:46;;;;;;;10.30;9.23;;;;;;;;;;5073901;28;20447;-68
2023/09/13 03:22:13;;;;;;;11.27;8.53;;;;;;;;;;5073839;28;20439;-68
2023/09/13 03:24:41;;;;;;;9.80;8.63;;;;;;;;;;5073745;28;20874;-68
2023/09/13 03:27:09;;;;;;;12.33;9.10;;;;;;;;;;5073942;28;20443;-67
2023/09/13 03:29:37;;;;;;;9.07;8.17;;;;;;;;;;5073822;28;20481;-68
2023/09/13 03:32:04;;;;;;;13.40;8.03;;;;;;;;;;5073587;28;20877;-68
2023/09/13 03:34:31;;;;;;;11.93;8.10;;;;;;;;;;5073554;28;20530;-68
2023/09/13 03:36:58;;;;;;;11.77;8.60;;;;;;;;;;5073499;28;20538;-68
2023/09/13 03:39:28;;;;;;;12.43;7.80;;;;;;;;;;5073418;28;20534;-68
2023/09/13 03:41:54;;;;;;;9.10;8.33;;;;;;;;;;5073855;28;20471;-68
2023/09/13 03:44:22;;;;;;;15.93;8.40;;;;;;;;;;5073492;28;20909;-68
2023/09/13 03:46:50;;;;;;;9.80;7.97;;;;;;;;;;5073398;28;20451;-68
2023/09/13 03:49:17;;;;;;;10.00;8.27;;;;;;;;;;5073358;28;20520;-68
2023/09/13 03:51:44;;;;;;;9.63;8.40;;;;;;;;;;5073137;28;20910;-68
2023/09/13 03:54:11;;;;;;;13.87;8.40;;;;;;;;;;5073514;28;20856;-68
2023/09/13 03:56:38;;;;;;;9.77;7.50;;;;;;;;;;5073308;28;20532;-68
2023/09/13 03:59:05;;;;;;;9.73;7.80;;;;;;;;;;5073567;28;20439;-68
2023/09/13 04:01:32;;;;;;;9.67;8.73;;;;;;;;;;5072969;28;20658;-68
2023/09/13 04:04:00;;;;;;;10.10;8.97;;;;;;;;;;5073139;28;20534;-68
2023/09/13 04:06:27;;;;;;;12.23;8.23;;;;;;;;;;5073084;28;20923;-68
2023/09/13 04:08:54;;;;;;;9.90;7.70;;;;;;;;;;5073247;28;20467;-68
2023/09/13 04:11:21;;;;;;;8.20;7.40;;;;;;;;;;5073130;28;20481;-68
2023/09/13 04:13:48;;;;;;;7.73;7.07;;;;;;;;;;5072878;28;20458;-68
2023/09/13 04:16:15;;;;;;;8.23;7.00;;;;;;;;;;5073064;28;20454;-68
2023/09/13 04:18:42;;;;;;;8.53;7.77;;;;;;;;;;5072899;28;20452;-68
2023/09/13 04:21:11;;;;;;;8.20;7.50;;;;;;;;;;5073140;28;20856;-68
2023/09/13 04:23:38;;;;;;;8.77;7.87;;;;;;;;;;5073117;28;20598;-68
2023/09/13 04:26:05;;;;;;;10.10;7.93;;;;;;;;;;5072993;28;20450;-68
2023/09/13 04:28:33;;;;;;;9.00;8.17;;;;;;;;;;5072968;28;20534;-68
2023/09/13 04:31:00;;;;;;;9.30;8.57;;;;;;;;;;5072802;28;20471;-68
2023/09/13 04:33:42;;;;;;;9.03;8.13;;;;;;;;;;5072754;28;20450;-68
2023/09/13 04:36:09;;;;;;;9.60;8.23;;;;;;;;;;5072802;28;20470;-68
2023/09/13 04:38:37;;;;;;;10.23;9.33;;;;;;;;;;5072882;28;20471;-68
2023/09/13 04:41:09;;;;;;;10.13;9.07;;;;;;;;;;5072855;28;20478;-68
2023/09/13 04:43:36;;;;;;;9.70;8.70;;;;;;;;;;5073204;28;20444;-68
2023/09/13 04:46:03;;;;;;;9.90;8.90;;;;;;;;;;5072897;28;20440;-68
2023/09/13 04:48:30;;;;;;;9.80;8.80;;;;;;;;;;5072690;28;20546;-68
2023/09/13 04:50:57;;;;;;;9.63;8.73;;;;;;;;;;5072676;28;20534;-68
2023/09/13 04:53:25;;;;;;;10.43;9.57;;;;;;;;;;5072544;28;21033;-68
2023/09/13 04:55:53;;;;;;;9.97;9.13;;;;;;;;;;5072676;28;20553;-68
2023/09/13 04:58:20;;;;;;;8.40;7.60;;;;;;;;;;5072443;28;20479;-68
2023/09/13 05:00:47;;;;;;;10.50;8.60;;;;;;;;;;5072428;28;21069;-68
2023/09/13 05:03:14;;;;;;;8.60;7.80;;;;;;;;;;5072605;28;20439;-68
2023/09/13 05:05:41;;;;;;;9.23;8.13;;;;;;;;;;5072581;28;20526;-68
2023/09/13 05:08:08;;;;;;;9.50;8.70;;;;;;;;;;5072446;28;20444;-68
2023/09/13 05:10:35;;;;;;;10.03;9.03;;;;;;;;;;5072424;28;20442;-68
2023/09/13 05:13:03;;;;;;;9.40;8.57;;;;;;;;;;5072258;28;20860;-68
2023/09/13 05:15:30;;;;;;;8.97;8.10;;;;;;;;;;5072547;28;20538;-68
2023/09/13 05:17:57;;;;;;;9.77;8.97;;;;;;;;;;5072446;28;20447;-68
2023/09/13 05:20:26;;;;;;;9.90;9.00;;;;;;;;;;5072479;28;20447;-68
2023/09/13 05:22:53;;;;;;;11.20;7.67;;;;;;;;;;5072252;28;20448;-68
2023/09/13 05:25:20;;;;;;;8.13;7.20;;;;;;;;;;5072119;28;21037;-68
2023/09/13 05:27:47;;;;;;;8.40;7.60;;;;;;;;;;5075894;28;20451;-68
2023/09/13 05:30:15;;;;;;;8.60;7.97;;;;;;;;;;5076092;28;20535;-68
2023/09/13 05:32:42;;;;;;;11.27;8.57;;;;;;;;;;5075847;28;20483;-68
2023/09/13 05:35:10;;;;;;;8.90;8.20;;;;;;;;;;5075909;28;20904;-68
2023/09/13 05:37:36;;;;;;;10.33;9.30;;;;;;;;;;5076293;28;20869;-68
2023/09/13 05:40:06;;;;;;;9.90;8.80;;;;;;;;;;5076130;28;20444;-68
2023/09/13 05:42:34;;;;;;;9.47;8.63;;;;;;;;;;5075911;28;20934;-68
2023/09/13 05:45:01;;;;;;;14.30;9.53;;;;;;;;;;5075860;28;20447;-69
2023/09/13 05:47:29;;;;;;;10.70;9.80;;;;;;;;;;5075647;28;20527;-68
2023/09/13 05:49:56;;;;;;;11.57;8.63;;;;;;;;;;5075602;28;20475;-68
2023/09/13 05:52:23;;;;;;;13.90;10.30;;;;;;;;;;5075224;28;20832;-68
2023/09/13 05:54:50;;;;;;;11.40;10.13;;;;;;;;;;5075435;28;20526;-68
2023/09/13 05:57:17;;;;;;;12.13;10.73;;;;;;;;;;5075532;28;20538;-68
2023/09/13 05:59:44;;;;;;;12.13;11.00;;;;;;;;;;5075347;28;20546;-68
2023/09/13 06:02:11;;;;;;;10.67;9.67;;;;;;;;;;5075513;28;20444;-68
2023/09/13 06:04:39;;;;;;;11.27;10.17;;;;;;;;;;5075350;28;20450;-68
2023/09/13 06:07:07;;;;;;;11.40;10.33;;;;;;;;;;5075167;28;20453;-68
2023/09/13 06:09:34;;;;;;;12.57;10.33;;;;;;;;;;5075366;28;20447;-68
2023/09/13 06:12:02;;;;;;;13.07;11.87;;;;;;;;;;5075133;28;20578;-68
2023/09/13 06:14:28;;;;;;;13.20;12.03;;;;;;;;;;5075259;28;20447;-68
2023/09/13 06:16:55;;;;;;;13.00;11.70;;;;;;;;;;5075171;28;20530;-68
2023/09/13 06:19:22;;;;;;;12.40;11.00;;;;;;;;;;5075061;28;20443;-68
2023/09/13 06:21:51;;;;;;;12.83;11.63;;;;;;;;;;5074785;28;20447;-68
2023/09/13 06:24:18;;;;;;;12.70;11.50;;;;;;;;;;5072019;28;20483;-68
2023/09/13 06:26:45;;;;;;;13.87;12.57;;;;;;;;;;5075147;28;20442;-68
2023/09/13 06:29:11;;;;;;;15.57;13.97;;;;;;;;;;5075441;28;20485;-68
2023/09/13 06:31:39;;;;;;;13.10;11.80;;;;;;;;;;5074091;28;20546;-68
2023/09/13 06:34:06;;;;;;;11.63;10.43;;;;;;;;;;5073959;28;21033;-68
2023/09/13 06:36:33;;;;;;;14.23;10.97;;;;;;;;;;5074183;28;20475;-67
2023/09/13 06:39:02;;;;;;;11.00;10.10;;;;;;;;;;5074101;28;20442;-69
2023/09/13 06:41:29;;;;;;;16.80;10.80;;;;;;;;;;5074170;28;20450;-68
2023/09/13 06:43:56;;;;;;;13.20;11.80;;;;;;;;;;5073918;28;20458;-68
2023/09/13 06:46:23;;;;;;;10.90;10.00;;;;;;;;;;5073830;28;20818;-70
2023/09/13 06:48:50;;;;;;;12.40;10.00;;;;;;;;;;5073606;28;20546;-68
2023/09/13 06:51:17;;;;;;;11.70;10.50;;;;;;;;;;5073847;28;20530;-69
2023/09/13 06:53:44;;;;;;;10.80;9.90;;;;;;;;;;5073685;28;20510;-69
2023/09/13 06:56:12;;;;;;;10.20;9.30;;;;;;;;;;5071386;28;20444;-69
2023/09/13 06:58:39;;;;;;;10.47;9.47;;;;;;;;;;5073805;28;20526;-69
2023/09/13 07:01:06;;;;;;;13.20;10.40;;;;;;;;;;5073722;28;20550;-68
2023/09/13 07:03:33;;;;;;;9.17;8.37;;;;;;;;;;5073956;28;20526;-68
2023/09/13 07:06:00;;;;;;;9.03;8.20;;;;;;;;;;5073819;28;20439;-68
2023/09/13 07:08:27;;;;;;;10.93;7.90;;;;;;;;;;5073682;28;20877;-68
2023/09/13 07:10:53;;;;;;;9.40;8.50;;;;;;;;;;5073559;28;20439;-68
2023/09/13 07:13:22;;;;;;;8.10;7.30;;;;;;;;;;5073733;28;20562;-68
2023/09/13 07:15:49;;;;;;;9.10;8.40;;;;;;;;;;5073765;28;20447;-68
2023/09/13 07:18:16;;;;;;;10.47;8.00;;;;;;;;;;5073940;28;20448;-68
2023/09/13 07:20:43;;;;;;;7.97;7.20;;;;;;;;;;5073899;28;20443;-69
2023/09/13 07:23:10;;;;;;;8.53;6.67;;;;;;;;;;5073878;28;20889;-69
2023/09/13 07:25:37;;;;;;;7.93;7.17;;;;;;;;;;5073827;28;20535;-68
2023/09/13 07:28:04;;;;;;;6.30;5.90;;;;;;;;;;5073515;28;20953;-68
2023/09/13 07:30:32;;;;;;;7.37;6.80;;;;;;;;;;5073394;28;20447;-69
2023/09/13 07:32:59;;;;;;;8.60;7.80;;;;;;;;;;5073832;28;20479;-69
2023/09/13 07:35:27;;;;;;;8.63;7.93;;;;;;;;;;5073600;28;20435;-69
2023/09/13 07:37:54;;;;;;;8.90;8.10;;;;;;;;;;5071050;28;20976;-69
2023/09/13 07:40:21;;;;;;;8.90;8.10;;;;;;;;;;5072427;28;20450;-69
2023/09/13 07:42:48;;;;;;;9.20;7.70;;;;;;;;;;5072743;28;20440;-69
2023/09/13 07:45:15;;;;;;;8.97;7.03;;;;;;;;;;5074142;28;20550;-69
2023/09/13 07:47:43;;;;;;;8.67;7.97;;;;;;;;;;5072905;28;20439;-69
2023/09/13 07:50:25;;;;;;;7.57;6.97;;;;;;;;;;5072341;28;20471;-67
2023/09/13 07:52:52;;;;;;;8.40;7.73;;;;;;;;;;5072593;28;21001;-68
2023/09/13 07:55:19;;;;;;;7.53;6.93;;;;;;;;;;5073211;28;20451;-69
2023/09/13 07:57:46;;;;;;;7.83;7.03;;;;;;;;;;5070608;28;20469;-69
2023/09/13 08:00:13;;;;;;;8.10;6.80;;;;;;;;;;5072431;28;20471;-69
2023/09/13 08:02:44;;;;;;;6.40;6.00;;;;;;;;;;5075262;28;20439;-69
2023/09/13 08:05:12;;;;;;;6.73;6.23;;;;;;;;;;5072512;28;20439;-68
2023/09/13 08:07:39;;;;;;;7.17;6.53;;;;;;;;;;5072411;28;20436;-69
2023/09/13 08:10:06;;;;;;;7.63;6.37;;;;;;;;;;5069930;28;20830;-69
2023/09/13 08:12:33;;;;;;;9.07;6.33;;;;;;;;;;5072176;28;21425;-69
2023/09/13 08:15:00;;;;;;;7.07;5.40;;;;;;;;;;5073676;28;20531;-69
2023/09/13 08:17:27;;;;;;;5.50;5.10;;;;;;;;;;5070065;28;20439;-70
2023/09/13 08:19:54;;;;;;;8.23;6.10;;;;;;;;;;5072496;28;20962;-69
2023/09/13 08:22:22;;;;;;;6.20;5.60;;;;;;;;;;5072017;28;20440;-69
2023/09/13 08:24:49;;;;;;;5.00;4.70;;;;;;;;;;5072664;28;20526;-69
2023/09/13 08:27:16;;;;;;;8.70;5.23;;;;;;;;;;5072521;28;20439;-69
2023/09/13 08:29:43;;;;;;;5.33;4.90;;;;;;;;;;5072270;28;20519;-69
2023/09/13 08:32:10;;;;;;;5.27;4.90;;;;;;;;;;5072188;28;20522;-69
2023/09/13 08:34:37;;;;;;;5.47;5.03;;;;;;;;;;5072304;28;20446;-69
2023/09/13 08:37:04;;;;;;;5.30;4.80;;;;;;;;;;5072585;28;20861;-69
2023/09/13 08:39:32;;;;;;;4.47;4.17;;;;;;;;;;5072376;28;20535;-69
2023/09/13 08:41:59;;;;;;;5.47;4.67;;;;;;;;;;5072301;28;20443;-70
2023/09/13 08:44:27;;;;;;;4.57;4.27;;;;;;;;;;5072353;28;20890;-68
2023/09/13 08:46:57;;;;;;;5.60;5.10;;;;;;;;;;5072181;28;20446;-69
2023/09/13 08:49:24;;;;;;;4.40;4.00;;;;;;;;;;5072304;28;20530;-69
2023/09/13 08:51:52;;;;;;;4.90;4.50;;;;;;;;;;5072147;28;20451;-69
2023/09/13 08:54:20;;;;;;;4.57;4.17;;;;;;;;;;5072391;28;20475;-69
2023/09/13 08:56:48;;;;;;;4.87;4.47;;;;;;;;;;5072177;28;20998;-69
2023/09/13 08:59:16;;;;;;;5.97;5.43;;;;;;;;;;5072229;28;20440;-68
2023/09/13 09:01:47;;;;;;;5.60;5.13;;;;;;;;;;5074238;28;20471;-68
2023/09/13 09:04:14;;;;;;;5.07;4.67;;;;;;;;;;5076362;28;20542;-68
2023/09/13 09:06:41;;;;;;;4.07;3.87;;;;;;;;;;5076424;28;20938;-68
2023/09/13 09:09:09;;;;;;;3.77;3.57;;;;;;;;;;5076418;28;20447;-69
2023/09/13 09:11:37;;;;;;;3.27;3.07;;;;;;;;;;5076305;28;20479;-69
2023/09/13 09:14:06;;;;;;;4.00;3.70;;;;;;;;;;5076081;28;20483;-68
2023/09/13 09:16:34;;;;;;;4.10;3.70;;;;;;;;;;5076078;28;20443;-69
2023/09/13 09:19:04;;;;;;;3.83;3.50;;;;;;;;;;5073300;28;20477;-68
2023/09/13 09:21:32;;;;;;;3.73;3.43;;;;;;;;;;5076541;28;21019;-68
2023/09/13 09:23:59;;;;;;;4.03;3.67;;;;;;;;;;5076700;28;20458;-68
2023/09/13 09:26:26;;;;;;;3.00;2.80;;;;;;;;;;5075400;28;20952;-68
2023/09/13 09:28:53;;;;;;;4.17;3.87;;;;;;;;;;5074715;28;20443;-69
2023/09/13 09:31:25;;;;;;;3.77;3.50;;;;;;;;;;5075691;28;20470;-69
2023/09/13 09:34:02;;;;;;;4.00;3.70;;;;;;;;;;5075387;28;20478;-68
2023/09/13 09:36:34;;;;;;;3.20;3.00;;;;;;;;;;5075872;28;21006;-69
2023/09/13 09:39:01;;;;;;;3.70;3.50;;;;;;;;;;5075076;28;20505;-69
2023/09/13 09:41:32;;;;;;;3.10;2.90;;;;;;;;;;5075075;28;20530;-69
2023/09/13 09:43:59;;;;;;;2.33;2.17;;;;;;;;;;5074940;28;20806;-69
2023/09/13 09:46:28;;;;;;;2.33;2.23;;;;;;;;;;5075404;28;20449;-68
2023/09/13 09:48:55;;;;;;;2.07;1.90;;;;;;;;;;5074814;28;20849;-69
2023/09/13 09:51:22;;;;;;;1.90;1.80;;;;;;;;;;5074713;28;20438;-68
2023/09/13 09:53:49;;;;;;;2.30;1.97;;;;;;;;;;5074759;28;20499;-68
2023/09/13 09:56:17;;;;;;;2.20;2.00;;;;;;;;;;5074858;28;20447;-69
2023/09/13 09:58:44;;;;;;;2.43;2.23;;;;;;;;;;5075099;28;20863;-68
2023/09/13 10:01:12;;;;;;;1.77;1.67;;;;;;;;;;5074630;28;20546;-68
2023/09/13 10:03:40;;;;;;;2.13;1.90;;;;;;;;;;5075052;28;20474;-68
2023/09/13 10:06:10;;;;;;;2.40;1.77;;;;;;;;;;5074872;28;20538;-68
2023/09/13 10:08:38;;;;;;;2.90;2.37;;;;;;;;;;5072873;28;20436;-68
2023/09/13 10:11:06;;;;;;;2.10;2.00;;;;;;;;;;5074863;28;20822;-68
2023/09/13 10:13:33;;;;;;;2.63;1.90;;;;;;;;;;5074545;28;20804;-68
2023/09/13 10:16:02;;;;;;;3.80;2.23;;;;;;;;;;5074869;28;20614;-69
2023/09/13 10:18:31;;;;;;;1.87;1.77;;;;;;;;;;5074828;28;20439;-68
2023/09/13 10:21:00;;;;;;;5.43;1.70;;;;;;;;;;5074696;28;21002;-68
2023/09/13 10:23:30;;;;;;;3.70;2.03;;;;;;;;;;5074783;28;20806;-68
2023/09/13 10:26:00;;;;;;;1.90;1.80;;;;;;;;;;5075243;28;20535;-69
2023/09/13 10:28:28;;;;;;;1.90;1.80;;;;;;;;;;5074902;28;20458;-68
2023/09/13 10:30:55;;;;;;;1.90;1.80;;;;;;;;;;5074900;28;20539;-68
2023/09/13 10:33:22;;;;;;;2.20;2.10;;;;;;;;;;5074750;28;20487;-67
2023/09/13 10:35:50;;;;;;;2.47;2.27;;;;;;;;;;5074780;28;20447;-68
2023/09/13 10:38:24;;;;;;;2.03;1.93;;;;;;;;;;5074846;28;20477;-68
2023/09/13 10:40:56;;;;;;;4.20;2.30;;;;;;;;;;5074792;28;20814;-68
2023/09/13 10:43:24;;;;;;;1.97;1.87;;;;;;;;;;5074686;28;20542;-68
2023/09/13 10:45:51;;;;;;;2.30;2.10;;;;;;;;;;5074537;28;20443;-68
2023/09/13 10:48:18;;;;;;;2.30;2.20;;;;;;;;;;5074208;28;20476;-68
2023/09/13 10:50:46;;;;;;;2.23;2.13;;;;;;;;;;5074189;28;20453;-69
2023/09/13 10:53:14;;;;;;;2.20;2.00;;;;;;;;;;5074232;28;20475;-67
2023/09/13 10:55:42;;;;;;;2.17;2.07;;;;;;;;;;5071755;28;20463;-67
2023/09/13 10:58:10;;;;;;;2.10;2.00;;;;;;;;;;5074980;28;20444;-66
2023/09/13 11:00:38;;;;;;;1.90;1.80;;;;;;;;;;5074922;28;20463;-66
2023/09/13 11:03:05;;;;;;;2.67;2.17;;;;;;;;;;5074508;28;20788;-67
2023/09/13 11:05:33;;;;;;;2.77;2.10;;;;;;;;;;5072777;28;20865;-66
2023/09/13 11:08:00;;;;;;;1.80;1.70;;;;;;;;;;5072977;28;20440;-67
2023/09/13 11:10:31;;;;;;;1.90;1.80;;;;;;;;;;5073370;28;20748;-71
2023/09/13 11:13:11;;;;;;;2.20;2.00;;;;;;;;;;5074106;28;20843;-68
2023/09/13 11:15:48;;;;;;;1.70;1.60;;;;;;;;;;5072004;28;20442;-69
2023/09/13 11:18:15;;;;;;;1.90;1.80;;;;;;;;;;5071113;28;20561;-66
2023/09/13 11:20:43;;;;;;;2.13;2.00;;;;;;;;;;5073607;28;20440;-67
2023/09/13 11:23:10;;;;;;;2.20;2.10;;;;;;;;;;5072685;28;20994;-68
2023/09/13 11:25:39;;;;;;;2.17;1.93;;;;;;;;;;5073153;28;20961;-70
2023/09/13 11:28:09;;;;;;;2.00;1.90;;;;;;;;;;5073212;28;20443;-67
2023/09/13 11:30:49;;;;;;;2.33;2.13;;;;;;;;;;5071176;28;20439;-67
2023/09/13 11:33:16;;;;;;;1.97;1.87;;;;;;;;;;5071097;28;20467;-69
2023/09/13 11:35:44;;;;;;;1.60;1.50;;;;;;;;;;5073666;28;20501;-67
2023/09/13 11:38:12;;;;;;;1.90;1.80;;;;;;;;;;5073483;28;20448;-69
2023/09/13 11:40:42;;;;;;;2.57;1.67;;;;;;;;;;5073367;28;20455;-68
2023/09/13 11:43:12;;;;;;;1.90;1.80;;;;;;;;;;5073605;28;20455;-66
2023/09/13 11:45:40;;;;;;;1.80;1.70;;;;;;;;;;5073789;28;20448;-67
2023/09/13 11:48:08;;;;;;;2.30;1.43;;;;;;;;;;5073345;28;20444;-70
2023/09/13 11:50:42;;;;;;;2.20;2.00;;;;;;;;;;5073336;28;20490;-67
2023/09/13 11:53:12;;;;;;;1.63;1.53;;;;;;;;;;5073406;28;20533;-68
2023/09/13 11:55:40;;;;;;;2.40;1.80;;;;;;;;;;5070172;28;20452;-68
2023/09/13 11:58:07;;;;;;;1.50;1.40;;;;;;;;;;5073519;28;20439;-68
2023/09/13 12:00:41;;;;;;;1.63;1.53;;;;;;;;;;5073503;28;20463;-68
2023/09/13 12:03:08;;;;;;;1.77;1.60;;;;;;;;;;5072495;28;20451;-68
2023/09/13 12:05:35;;;;;;;1.50;1.40;;;;;;;;;;5072312;28;20440;-68
2023/09/13 12:08:02;;;;;;;2.57;1.93;;;;;;;;;;5072661;28;20519;-68
2023/09/13 12:10:30;;;;;;;2.07;1.97;;;;;;;;;;5072534;28;20439;-68
2023/09/13 12:12:57;;;;;;;1.70;1.60;;;;;;;;;;5072366;28;20942;-68
2023/09/13 12:15:25;;;;;;;2.07;1.93;;;;;;;;;;5072093;28;20482;-68
2023/09/13 12:17:53;;;;;;;2.13;2.00;;;;;;;;;;5072275;28;20946;-68
2023/09/13 12:20:20;;;;;;;2.30;2.10;;;;;;;;;;5072561;28;20546;-68
2023/09/13 12:22:47;;;;;;;1.90;1.80;;;;;;;;;;5072518;28;20440;-68
2023/09/13 12:25:15;;;;;;;2.20;2.10;;;;;;;;;;5072137;28;20977;-68
2023/09/13 12:27:42;;;;;;;2.30;2.20;;;;;;;;;;5070969;28;20470;-68
2023/09/13 12:30:09;;;;;;;1.90;1.80;;;;;;;;;;5071036;28;20849;-67
2023/09/13 12:32:37;;;;;;;2.10;1.90;;;;;;;;;;5069887;28;20447;-68
2023/09/13 12:35:06;;;;;;;2.93;2.77;;;;;;;;;;5074159;28;20466;-68
2023/09/13 12:37:33;;;;;;;2.63;2.43;;;;;;;;;;5076068;28;20547;-68
2023/09/13 12:39:59;;;;;;;2.30;2.10;;;;;;;;;;5078628;28;20541;-68
2023/09/13 12:42:26;;;;;;;1.77;1.67;;;;;;;;;;5078787;28;21038;-68
2023/09/13 12:44:54;;;;;;;2.30;2.10;;;;;;;;;;5078801;28;20459;-67
2023/09/13 12:47:21;;;;;;;2.20;2.10;;;;;;;;;;5079051;28;20439;-68
2023/09/13 12:49:48;;;;;;;2.30;2.20;;;;;;;;;;5078886;28;20445;-67
2023/09/13 12:52:17;;;;;;;1.77;1.67;;;;;;;;;;5078872;28;20538;-67
2023/09/13 12:54:45;;;;;;;1.67;1.57;;;;;;;;;;5078896;28;20470;-67
2023/09/13 12:57:12;;;;;;;1.57;1.47;;;;;;;;;;5078779;28;20441;-68
2023/09/13 12:59:43;;;;;;;1.37;1.20;;;;;;;;;;5076015;28;20474;-67
2023/09/13 13:02:14;;;;;;;1.70;1.60;;;;;;;;;;5079125;28;20893;-67
2023/09/13 13:04:42;;;;;;;1.40;1.30;;;;;;;;;;5076528;28;20807;-68
2023/09/13 13:07:08;;;;;;;1.67;1.57;;;;;;;;;;5078845;28;20443;-67
2023/09/13 13:09:37;;;;;;;1.77;1.20;;;;;;;;;;5078993;28;20973;-67
2023/09/13 13:12:04;;;;;;;1.60;1.50;;;;;;;;;;5078968;28;20538;-67
2023/09/13 13:14:31;;;;;;;1.63;1.53;;;;;;;;;;5079298;28;20475;-67
2023/09/13 13:16:59;;;;;;;2.00;1.90;;;;;;;;;;5079156;28;20490;-68
2023/09/13 13:19:33;;;;;;;2.13;1.73;;;;;;;;;;5078856;28;21029;-67
2023/09/13 13:22:00;;;;;;;1.53;1.43;;;;;;;;;;5079029;28;20444;-67
2023/09/13 13:24:27;;;;;;;1.67;1.57;;;;;;;;;;5078893;28;20546;-67
2023/09/13 13:26:55;;;;;;;1.70;1.60;;;;;;;;;;5079100;28;20450;-67
2023/09/13 13:29:22;;;;;;;1.50;1.40;;;;;;;;;;5078784;28;20518;-67
2023/09/13 13:31:50;;;;;;;1.70;1.60;;;;;;;;;;5079072;28;20888;-67
2023/09/13 13:34:17;;;;;;;1.70;1.60;;;;;;;;;;5078907;28;20467;-67
2023/09/13 13:36:44;;;;;;;2.80;1.40;;;;;;;;;;5078877;28;20537;-67
2023/09/13 13:39:15;;;;;;;1.73;1.63;;;;;;;;;;5079488;28;20538;-67
2023/09/13 13:41:42;;;;;;;1.50;1.20;;;;;;;;;;5078940;28;20456;-67
2023/09/13 13:44:11;;;;;;;1.33;1.23;;;;;;;;;;5078886;28;20455;-67
2023/09/13 13:46:38;;;;;;;2.77;1.77;;;;;;;;;;5076993;28;20866;-68
2023/09/13 13:49:05;;;;;;;1.40;1.27;;;;;;;;;;5075580;28;20611;-68
2023/09/13 13:51:32;;;;;;;1.37;1.27;;;;;;;;;;5075649;28;20443;-68
2023/09/13 13:53:59;;;;;;;1.40;1.30;;;;;;;;;;5075376;28;20895;-68
2023/09/13 13:56:26;;;;;;;1.60;1.50;;;;;;;;;;5075573;28;20486;-68
2023/09/13 13:58:54;;;;;;;1.23;1.10;;;;;;;;;;5075538;28;20451;-68
2023/09/13 14:01:22;;;;;;;1.40;1.30;;;;;;;;;;5075267;28;20482;-67
2023/09/13 14:03:50;;;;;;;1.50;1.40;;;;;;;;;;5075319;28;20439;-67
2023/09/13 14:06:16;;;;;;;1.30;1.20;;;;;;;;;;5075136;28;21022;-67
2023/09/13 14:08:43;;;;;;;1.50;1.40;;;;;;;;;;5075281;28;20536;-67
2023/09/13 14:11:10;;;;;;;1.33;1.23;;;;;;;;;;5075506;28;20436;-68
2023/09/13 14:13:37;;;;;;;2.20;1.50;;;;;;;;;;5075244;28;20602;-67
2023/09/13 14:16:04;;;;;;;1.63;1.37;;;;;;;;;;5075129;28;20564;-67
2023/09/13 14:18:32;;;;;;;1.90;1.80;;;;;;;;;;5075089;28;20530;-67
2023/09/13 14:20:59;;;;;;;1.57;1.47;;;;;;;;;;5075035;28;20531;-67
2023/09/13 14:23:26;;;;;;;1.93;1.80;;;;;;;;;;5075169;28;20796;-67
2023/09/13 14:25:53;;;;;;;1.60;1.50;;;;;;;;;;5075131;28;20501;-68
2023/09/13 14:28:20;;;;;;;2.10;2.00;;;;;;;;;;5074827;28;20535;-68
2023/09/13 14:30:48;;;;;;;2.17;2.00;;;;;;;;;;5073137;28;20964;-68
2023/09/13 14:33:16;;;;;;;2.07;1.97;;;;;;;;;;5072619;28;20456;-68
2023/09/13 14:35:45;;;;;;;1.83;1.73;;;;;;;;;;5073010;28;20556;-68
2023/09/13 14:38:14;;;;;;;2.10;2.00;;;;;;;;;;5072742;28;20447;-68
2023/09/13 14:40:43;;;;;;;2.30;2.10;;;;;;;;;;5072761;28;20448;-68
2023/09/13 14:43:10;;;;;;;1.90;1.80;;;;;;;;;;5072705;28;20455;-68